createdAt,value
2022-09-20T09:41:35.762Z,16.65
2022-09-20T09:44:30.650Z,16.71
2022-09-20T09:47:29.412Z,16.84
2022-09-20T09:50:34.769Z,16.94
2022-09-20T09:53:23.834Z,17.04
2022-09-20T09:56:24.421Z,17.13
2022-09-20T09:59:33.204Z,17.19
2022-09-20T10:02:43.503Z,17.17
2022-09-20T10:05:41.345Z,17.14
2022-09-20T10:09:05.813Z,17.25
2022-09-20T10:12:17.829Z,17.38
2022-09-20T10:15:44.700Z,17.37
2022-09-20T10:18:42.448Z,17.35
2022-09-20T10:21:50.938Z,17.41
2022-09-20T10:24:55.616Z,17.54
2022-09-20T10:28:17.497Z,17.70
2022-09-20T10:31:12.590Z,17.71
2022-09-20T10:34:04.105Z,17.59
2022-09-20T10:36:55.862Z,17.54
2022-09-20T10:39:44.444Z,17.53
2022-09-20T10:43:07.435Z,17.51
2022-09-20T10:46:33.011Z,17.45
2022-09-20T10:49:58.348Z,17.33
2022-09-20T10:53:14.589Z,17.25
2022-09-20T10:56:27.601Z,17.31
2022-09-20T10:59:19.350Z,17.26
2022-09-20T11:02:33.330Z,17.33
2022-09-20T11:05:29.419Z,17.49
2022-09-20T11:08:26.402Z,17.66
2022-09-20T11:11:23.630Z,17.76
2022-09-20T11:14:21.476Z,17.96
2022-09-20T11:17:22.678Z,18.05
2022-09-20T11:20:20.784Z,18.19
2022-09-20T11:23:35.201Z,18.41
2022-09-20T11:26:55.631Z,18.48
2022-09-20T11:29:50.453Z,18.50
2022-09-20T11:32:49.483Z,18.61
2022-09-20T11:35:46.170Z,18.61
2022-09-20T11:38:50.947Z,18.45
2022-09-20T11:41:39.190Z,18.34
2022-09-20T11:44:24.702Z,18.36
2022-09-20T11:47:31.454Z,18.19
2022-09-20T11:50:43.258Z,18.13
2022-09-20T11:53:37.141Z,17.99
2022-09-20T11:56:24.978Z,18.10
2022-09-20T11:59:23.070Z,18.16
2022-09-20T12:02:41.090Z,18.32
2022-09-20T12:05:37.270Z,18.55
2022-09-20T12:08:35.825Z,18.74
2022-09-20T12:11:34.222Z,18.71
2022-09-20T12:14:28.426Z,18.72
2022-09-20T12:17:44.529Z,18.79
2022-09-20T12:20:33.119Z,18.78
2022-09-20T12:23:40.538Z,18.73
2022-09-20T12:26:26.290Z,18.73
2022-09-20T12:29:23.773Z,18.61
2022-09-20T12:32:31.856Z,18.69
2022-09-20T12:35:53.394Z,18.72
2022-09-20T12:38:45.563Z,18.62
2022-09-20T12:42:23.092Z,18.41
2022-09-20T12:45:17.839Z,18.27
2022-09-20T12:48:03.321Z,18.20
2022-09-20T12:51:54.747Z,18.26
2022-09-20T12:54:56.371Z,18.29
2022-09-20T12:57:43.853Z,18.15
2022-09-20T13:00:45.133Z,18.06
2022-09-20T13:03:36.621Z,18.01
2022-09-20T13:06:24.276Z,18.15
2022-09-20T13:09:10.540Z,18.31
2022-09-20T13:12:01.342Z,18.50
2022-09-20T13:14:47.698Z,18.69
2022-09-20T13:17:34.747Z,18.78
2022-09-20T13:20:30.147Z,18.94
2022-09-20T13:23:28.448Z,19.03
2022-09-20T13:26:15.626Z,19.15
2022-09-20T13:29:02.989Z,19.09
2022-09-20T13:31:48.677Z,19.20
2022-09-20T13:34:34.239Z,19.22
2022-09-20T13:37:23.747Z,19.65
2022-09-20T13:40:39.206Z,20.10
2022-09-20T13:43:32.172Z,20.24
2022-09-20T13:46:30.297Z,20.04
2022-09-20T13:49:21.428Z,19.91
2022-09-20T13:52:33.216Z,19.97
2022-09-20T13:55:33.926Z,19.92
2022-09-20T13:58:37.274Z,19.84
2022-09-20T14:01:30.365Z,19.66
2022-09-20T14:04:21.574Z,19.47
2022-09-20T14:07:08.442Z,19.29
2022-09-20T14:09:54.982Z,19.13
2022-09-20T14:12:40.822Z,19.01
2022-09-20T14:15:34.042Z,18.94
2022-09-20T14:18:22.569Z,18.90
2022-09-20T14:21:10.217Z,18.83
2022-09-20T14:24:03.608Z,18.76
2022-09-20T14:27:15.644Z,18.70
2022-09-20T14:30:02.412Z,18.61
2022-09-20T14:32:54.253Z,18.57
2022-09-20T14:35:46.565Z,18.56
2022-09-20T14:38:33.021Z,18.53
2022-09-20T14:41:28.987Z,18.54
2022-09-20T14:44:30.681Z,18.43
2022-09-20T14:47:16.757Z,18.34
2022-09-20T14:50:03.968Z,18.32
2022-09-20T14:53:00.528Z,18.52
2022-09-20T14:56:07.141Z,19.19
2022-09-20T14:59:21.243Z,19.89
2022-09-20T15:02:07.040Z,20.06
2022-09-20T15:04:54.987Z,19.84
2022-09-20T15:07:40.622Z,19.58
2022-09-20T15:10:26.079Z,19.26
2022-09-20T15:13:11.829Z,19.52
2022-09-20T15:15:58.905Z,19.58
2022-09-20T15:18:44.946Z,19.84
2022-09-20T15:21:30.592Z,19.71
2022-09-20T15:24:18.775Z,19.46
2022-09-20T15:27:04.882Z,19.32
2022-09-20T15:29:50.514Z,19.56
2022-09-20T15:32:35.869Z,19.71
2022-09-20T15:35:21.171Z,19.52
2022-09-20T15:38:09.101Z,19.29
2022-09-20T15:40:54.975Z,19.09
2022-09-20T15:43:43.341Z,18.82
2022-09-20T15:46:28.640Z,18.55
2022-09-20T15:49:14.249Z,18.39
2022-09-20T15:51:59.521Z,18.30
2022-09-20T15:54:44.882Z,18.30
2022-09-20T15:57:32.006Z,18.24
2022-09-20T16:00:20.247Z,18.17
2022-09-20T16:03:05.674Z,18.12
2022-09-20T16:06:04.357Z,18.05
2022-09-20T16:08:51.160Z,18.03
2022-09-20T16:11:37.754Z,18.01
2022-09-20T16:14:23.067Z,17.98
2022-09-20T16:17:08.593Z,18.05
2022-09-20T16:19:53.807Z,18.27
2022-09-20T16:22:39.251Z,18.54
2022-09-20T16:25:24.533Z,18.83
2022-09-20T16:28:10.007Z,19.06
2022-09-20T16:31:00.250Z,19.12
2022-09-20T16:33:45.552Z,19.00
2022-09-20T16:36:34.022Z,18.90
2022-09-20T16:39:21.016Z,18.84
2022-09-20T16:42:08.781Z,18.70
2022-09-20T16:44:54.255Z,18.82
2022-09-20T16:47:41.301Z,19.03
2022-09-20T16:50:27.185Z,19.32
2022-09-20T16:53:12.770Z,19.41
2022-09-20T16:55:58.825Z,19.43
2022-09-20T16:58:44.339Z,19.44
2022-09-20T17:01:31.373Z,19.45
2022-09-20T17:04:18.480Z,19.35
2022-09-20T17:07:03.796Z,19.26
2022-09-20T17:09:49.469Z,19.12
2022-09-20T17:12:41.602Z,18.99
2022-09-20T17:15:26.889Z,18.89
2022-09-20T17:18:15.731Z,18.77
2022-09-20T17:21:06.772Z,18.62
2022-09-20T17:23:57.286Z,18.43
2022-09-20T17:26:45.788Z,18.27
2022-09-20T17:29:31.222Z,18.08
2022-09-20T17:32:16.738Z,17.94
2022-09-20T17:35:02.392Z,17.83
2022-09-20T17:37:47.918Z,17.73
2022-09-20T17:40:33.464Z,17.69
2022-09-20T17:43:19.013Z,17.63
2022-09-20T17:46:16.323Z,17.52
2022-09-20T17:49:04.772Z,17.39
2022-09-20T17:51:52.947Z,17.21
2022-09-20T17:54:39.625Z,16.96
2022-09-20T17:57:25.052Z,16.75
2022-09-20T18:00:11.090Z,16.56
2022-09-20T18:02:56.688Z,16.34
2022-09-20T18:05:42.588Z,16.14
2022-09-20T18:08:27.729Z,15.98
2022-09-20T18:11:14.088Z,15.77
2022-09-20T18:14:00.833Z,15.55
2022-09-20T18:16:47.161Z,15.38
2022-09-20T18:19:33.651Z,15.21
2022-09-20T18:22:19.170Z,15.08
2022-09-20T18:25:05.081Z,14.92
2022-09-20T18:27:53.739Z,14.81
2022-09-20T18:30:40.065Z,14.70
2022-09-20T18:33:26.469Z,14.61
2022-09-20T18:36:12.351Z,14.51
2022-09-20T18:38:59.535Z,14.47
2022-09-20T18:41:45.046Z,14.44
2022-09-20T18:44:32.480Z,14.44
2022-09-20T18:47:19.387Z,14.38
2022-09-20T18:50:05.549Z,14.33
2022-09-20T18:52:51.394Z,14.30
2022-09-20T18:55:41.267Z,14.22
2022-09-20T18:58:26.636Z,14.20
2022-09-20T19:01:20.540Z,14.18
2022-09-20T19:04:43.370Z,14.16
2022-09-20T19:08:02.881Z,14.10
2022-09-20T19:10:56.481Z,14.01
2022-09-20T19:14:04.951Z,13.93
2022-09-20T19:17:00.229Z,13.81
2022-09-20T19:20:03.682Z,13.68
2022-09-20T19:23:30.768Z,13.53
2022-09-20T19:26:21.831Z,13.40
2022-09-20T19:29:34.065Z,13.29
2022-09-20T19:32:21.765Z,13.19
2022-09-20T19:35:28.510Z,13.10
2022-09-20T19:38:52.733Z,12.97
2022-09-20T19:41:58.207Z,12.95
2022-09-20T19:45:07.475Z,12.94
2022-09-20T19:48:43.023Z,12.94
2022-09-20T19:51:32.168Z,12.85
2022-09-20T19:54:18.857Z,12.86
2022-09-20T19:57:08.718Z,12.87
2022-09-20T19:59:56.010Z,12.84
2022-09-20T20:02:46.092Z,12.80
2022-09-20T20:05:31.995Z,12.74
2022-09-20T20:08:33.127Z,12.69
2022-09-20T20:11:31.183Z,12.60
2022-09-20T20:14:37.449Z,12.53
2022-09-20T20:18:00.196Z,12.50
2022-09-20T20:20:50.114Z,12.50
2022-09-20T20:23:52.351Z,12.49
2022-09-20T20:26:37.979Z,12.54
2022-09-20T20:29:23.867Z,12.44
2022-09-20T20:32:10.232Z,12.44
2022-09-20T20:34:55.913Z,12.39
2022-09-20T20:37:41.187Z,12.40
2022-09-20T20:40:27.413Z,12.28
2022-09-20T20:43:13.103Z,12.28
2022-09-20T20:45:58.708Z,12.13
2022-09-20T20:48:45.971Z,11.92
2022-09-20T20:51:33.212Z,11.73
2022-09-20T20:54:18.668Z,11.69
2022-09-20T20:57:04.535Z,11.56
2022-09-20T20:59:50.173Z,11.36
2022-09-20T21:02:35.629Z,11.32
2022-09-20T21:05:23.527Z,11.17
2022-09-20T21:08:09.560Z,11.00
2022-09-20T21:11:00.361Z,11.00
2022-09-20T21:13:48.489Z,10.88
2022-09-20T21:16:36.860Z,10.87
2022-09-20T21:19:24.066Z,10.78
2022-09-20T21:22:09.991Z,10.76
2022-09-20T21:24:55.826Z,10.77
2022-09-20T21:27:41.063Z,10.67
2022-09-20T21:30:26.569Z,10.70
2022-09-20T21:33:12.317Z,10.71
2022-09-20T21:36:01.234Z,10.74
2022-09-20T21:38:47.334Z,10.74
2022-09-20T21:41:35.500Z,10.81
2022-09-20T21:44:20.960Z,10.87
2022-09-20T21:47:06.501Z,10.94
2022-09-20T21:49:52.203Z,11.08
2022-09-20T21:52:37.611Z,11.04
2022-09-20T21:55:23.266Z,10.99
2022-09-20T21:58:08.629Z,10.93
2022-09-20T22:01:03.578Z,10.92
2022-09-20T22:03:52.243Z,10.90
2022-09-20T22:06:40.760Z,10.92
2022-09-20T22:09:26.540Z,10.93
2022-09-20T22:12:11.968Z,10.85
2022-09-20T22:14:57.324Z,10.87
2022-09-20T22:17:43.777Z,10.86
2022-09-20T22:20:29.385Z,10.72
2022-09-20T22:23:14.864Z,10.56
2022-09-20T22:26:02.829Z,10.56
2022-09-20T22:28:52.301Z,10.55
2022-09-20T22:31:45.637Z,10.50
2022-09-20T22:34:31.613Z,10.45
2022-09-20T22:37:17.731Z,10.40
2022-09-20T22:40:03.226Z,10.38
2022-09-20T22:42:48.833Z,10.30
2022-09-20T22:45:34.021Z,10.29
2022-09-20T22:48:20.029Z,10.25
2022-09-20T22:51:08.793Z,10.23
2022-09-20T22:53:55.360Z,10.21
2022-09-20T22:56:43.974Z,10.15
2022-09-20T22:59:29.827Z,10.11
2022-09-20T23:02:15.286Z,10.07
2022-09-20T23:05:00.802Z,10.11
2022-09-20T23:07:48.524Z,10.13
2022-09-20T23:10:34.011Z,10.19
2022-09-20T23:13:19.592Z,10.17
2022-09-20T23:16:18.709Z,10.19
2022-09-20T23:19:06.220Z,10.19
2022-09-20T23:21:52.099Z,10.23
2022-09-20T23:24:37.478Z,10.31
2022-09-20T23:27:23.087Z,10.40
2022-09-20T23:30:08.898Z,10.50
2022-09-20T23:32:54.335Z,10.54
2022-09-20T23:35:44.661Z,10.55
2022-09-20T23:38:30.226Z,10.58
2022-09-20T23:41:18.563Z,10.62
2022-09-20T23:44:06.733Z,10.66
2022-09-20T23:46:52.326Z,10.72
2022-09-20T23:49:37.750Z,10.75
2022-09-20T23:52:23.154Z,10.84
2022-09-20T23:55:08.709Z,10.97
2022-09-20T23:57:57.412Z,11.02
